Time;durP1;ratioP1;P1;durP2;ratioP2;P2;SDS_P1;SDS_P2;PMS_P1;PMS_P2;Temp;Humidity;BMP_temperature;BMP_pressure;BME280_temperature;BME280_humidity;BME280_pressure;Samples;Min_cycle;Max_cycle;Signal;HPM_P1;HPM_P2
2022/03/30 00:01:37;;;;;;;20.42;12.13;;;;;;;12.98;45.06;95445.69;4995982;28;20046;-80
2022/03/30 00:04:05;;;;;;;16.48;11.68;;;;;;;12.97;45.06;95446.75;4996295;28;20046;-80
2022/03/30 00:06:33;;;;;;;19.15;11.82;;;;;;;12.96;45.05;95445.13;4995492;28;20546;-80
2022/03/30 00:09:01;;;;;;;18.65;11.80;;;;;;;12.93;44.75;95449.00;4996100;28;20050;-80
2022/03/30 00:11:29;;;;;;;17.05;11.45;;;;;;;12.91;44.73;95440.56;4995866;28;20056;-80
2022/03/30 00:13:57;;;;;;;16.55;12.32;;;;;;;12.88;44.91;95440.22;4995545;28;20050;-80
2022/03/30 00:16:25;;;;;;;16.77;12.57;;;;;;;12.86;45.03;95427.38;4994878;28;20096;-79
2022/03/30 00:18:53;;;;;;;19.05;12.02;;;;;;;12.84;45.08;95431.22;4995590;28;20054;-80
2022/03/30 00:21:21;;;;;;;18.63;12.95;;;;;;;12.80;45.28;95430.09;4997410;28;20061;-81
2022/03/30 00:23:49;;;;;;;20.30;11.98;;;;;;;12.82;45.88;95422.81;5002886;28;20062;-80
2022/03/30 00:26:18;;;;;;;19.95;13.63;;;;;;;12.86;45.88;95421.34;5007771;28;20121;-80
2022/03/30 00:28:45;;;;;;;19.27;12.18;;;;;;;12.87;45.56;95428.16;5010273;28;20444;-80
2022/03/30 00:31:13;;;;;;;17.08;11.50;;;;;;;12.84;45.85;95423.38;5004960;28;20074;-80
2022/03/30 00:33:41;;;;;;;19.58;11.80;;;;;;;12.78;45.90;95423.25;4995355;28;20072;-80
2022/03/30 00:36:08;;;;;;;15.55;10.80;;;;;;;12.74;45.76;95426.53;4995589;28;20069;-80
2022/03/30 00:38:36;;;;;;;19.33;11.55;;;;;;;12.64;46.26;95419.25;4995108;28;20054;-80
2022/03/30 00:41:04;;;;;;;18.58;12.15;;;;;;;12.59;46.39;95416.47;4995019;28;20125;-80
2022/03/30 00:43:34;;;;;;;15.05;10.00;;;;;;;12.57;47.23;95421.13;4995539;28;20134;-80
2022/03/30 00:46:01;;;;;;;18.10;10.00;;;;;;;12.63;47.22;95422.06;4994820;28;20054;-80
2022/03/30 00:48:29;;;;;;;18.45;11.13;;;;;;;12.65;46.65;95415.59;4995018;28;20137;-80
2022/03/30 00:50:57;;;;;;;14.63;10.50;;;;;;;12.64;46.35;95415.81;4994668;28;20564;-80
2022/03/30 00:53:24;;;;;;;16.55;11.00;;;;;;;12.58;46.44;95415.69;4994595;28;20455;-80
2022/03/30 00:55:53;;;;;;;20.92;11.57;;;;;;;12.50;46.57;95418.59;4994080;28;20699;-79
2022/03/30 00:58:22;;;;;;;17.52;10.77;;;;;;;12.44;46.92;95414.28;4994894;28;20053;-80
2022/03/30 01:00:51;;;;;;;16.52;11.02;;;;;;;12.38;47.19;95414.38;4994756;28;20062;-80
2022/03/30 01:03:19;;;;;;;20.00;11.85;;;;;;;12.33;47.00;95412.41;4994386;28;20070;-80
2022/03/30 01:05:46;;;;;;;17.30;10.88;;;;;;;12.30;47.36;95418.88;4994115;28;20053;-80
2022/03/30 01:08:14;;;;;;;18.20;10.40;;;;;;;12.30;47.55;95416.25;4994442;28;20511;-80
2022/03/30 01:10:42;;;;;;;18.23;11.70;;;;;;;12.30;47.55;95408.41;4994668;28;20064;-80
2022/03/30 01:13:10;;;;;;;17.88;12.75;;;;;;;12.31;47.68;95404.81;4994491;28;20057;-80
2022/03/30 01:15:39;;;;;;;17.65;12.45;;;;;;;12.33;47.58;95400.16;4994095;28;20093;-80
2022/03/30 01:18:08;;;;;;;18.23;12.35;;;;;;;12.31;47.79;95394.34;4994061;28;20062;-80
2022/03/30 01:20:37;;;;;;;16.90;11.25;;;;;;;12.28;47.77;95394.78;4994169;28;20129;-80
2022/03/30 01:23:07;;;;;;;16.25;11.50;;;;;;;12.25;48.15;95384.75;4993985;28;20049;-80
2022/03/30 01:25:34;;;;;;;17.73;11.80;;;;;;;12.20;48.04;95379.41;4994065;28;20054;-80
2022/03/30 01:28:04;;;;;;;23.65;13.40;;;;;;;12.13;48.24;95376.06;4993472;28;20508;-80
2022/03/30 01:33:32;;;;;;;18.20;11.18;;;;;;;12.03;48.52;95367.97;4915076;29;20090;-80
2022/03/30 01:36:00;;;;;;;20.42;10.57;;;;;;;11.98;48.46;95362.59;4914449;29;20055;-80
2022/03/30 01:38:29;;;;;;;19.77;11.70;;;;;;;11.93;48.49;95363.25;4951095;28;20496;-80
2022/03/30 01:40:57;;;;;;;15.15;11.55;;;;;;;11.91;48.44;95360.06;4994030;28;20046;-80
2022/03/30 01:43:24;;;;;;;22.58;12.68;;;;;;;11.91;48.49;95360.84;4993747;28;20057;-81
2022/03/30 01:45:52;;;;;;;15.45;11.45;;;;;;;11.91;48.69;95355.63;4993269;28;20057;-80
2022/03/30 01:48:19;;;;;;;23.73;12.30;;;;;;;11.89;48.69;95349.81;4993583;28;20512;-80
2022/03/30 01:50:47;;;;;;;15.10;11.10;;;;;;;11.89;48.69;95354.25;4993848;28;20527;-80
2022/03/30 01:53:15;;;;;;;17.17;12.23;;;;;;;11.89;48.77;95354.25;4993455;28;20050;-80
2022/03/30 01:55:44;;;;;;;22.50;13.20;;;;;;;11.89;48.89;95347.22;4993743;28;20481;-80
2022/03/30 01:58:11;;;;;;;20.75;11.70;;;;;;;11.86;48.76;95347.63;4993431;28;20082;-80
2022/03/30 02:00:39;;;;;;;20.98;11.50;;;;;;;11.84;49.23;95341.81;4993643;28;20058;-80
2022/03/30 02:03:08;;;;;;;22.73;13.18;;;;;;;11.82;49.06;95341.25;4993212;28;20054;-80
2022/03/30 02:05:36;;;;;;;19.65;12.13;;;;;;;11.81;49.23;95337.06;4995273;28;20564;-80
2022/03/30 02:08:04;;;;;;;19.95;12.90;;;;;;;11.81;49.43;95337.06;4992927;28;20092;-80
2022/03/30 02:10:32;;;;;;;20.08;12.77;;;;;;;11.81;49.31;95334.44;4993590;28;20053;-80
2022/03/30 02:13:01;;;;;;;19.98;11.55;;;;;;;11.82;49.31;95336.03;4993346;28;20456;-80
2022/03/30 02:15:30;;;;;;;20.65;12.55;;;;;;;11.80;49.39;95330.22;4993262;28;20146;-80
2022/03/30 02:17:57;;;;;;;21.77;11.60;;;;;;;11.77;49.52;95330.66;4992857;28;20169;-80
2022/03/30 02:20:25;;;;;;;20.48;12.55;;;;;;;11.73;49.65;95332.13;4993078;28;20511;-80
2022/03/30 02:22:52;;;;;;;18.67;12.23;;;;;;;11.70;49.75;95333.38;4993289;28;20056;-80
2022/03/30 02:25:20;;;;;;;19.92;10.95;;;;;;;11.68;49.85;95326.78;4993330;28;20077;-80
2022/03/30 02:27:47;;;;;;;26.10;13.48;;;;;;;11.68;50.15;95326.78;4992714;28;20058;-80
2022/03/30 02:30:16;;;;;;;14.85;10.88;;;;;;;11.71;50.32;95326.31;4993393;28;20140;-80
2022/03/30 02:32:44;;;;;;;26.52;12.85;;;;;;;11.72;50.06;95320.09;4993872;28;20105;-80
2022/03/30 02:35:12;;;;;;;16.45;10.68;;;;;;;11.78;50.88;95318.41;4997599;28;20046;-80
2022/03/30 02:37:40;;;;;;;17.35;12.07;;;;;;;11.83;50.12;95314.13;4997836;28;20058;-80
2022/03/30 02:40:08;;;;;;;17.50;12.73;;;;;;;11.91;50.12;95315.63;4995539;28;20153;-80
2022/03/30 02:42:36;;;;;;;20.67;12.32;;;;;;;11.96;49.83;95318.41;4993847;28;20097;-80
2022/03/30 02:45:05;;;;;;;15.88;12.13;;;;;;;11.98;49.93;95312.94;4993102;28;20050;-80
2022/03/30 02:50:19;;;;;;;20.85;12.65;;;;;;;12.13;49.82;95305.50;4992976;28;20539;-79
2022/03/30 02:52:46;;;;;;;17.45;12.85;;;;;;;12.15;49.53;95295.59;4992718;28;20050;-80
2022/03/30 02:55:14;;;;;;;19.98;14.20;;;;;;;12.10;49.60;95296.28;4993093;28;20061;-80
2022/03/30 02:57:41;;;;;;;27.20;13.70;;;;;;;12.04;49.60;95297.16;4992107;28;20073;-80
2022/03/30 03:00:10;;;;;;;19.67;13.60;;;;;;;11.97;50.02;95298.28;4993080;28;20153;-80
2022/03/30 03:02:39;;;;;;;19.75;13.75;;;;;;;11.94;50.61;95297.72;4992714;28;20054;-81
2022/03/30 03:05:07;;;;;;;18.40;13.18;;;;;;;11.98;50.12;95299.88;4992866;28;20066;-80
2022/03/30 03:07:35;;;;;;;20.98;14.73;;;;;;;11.98;50.15;95294.66;4992197;28;20046;-80
2022/03/30 03:10:03;;;;;;;17.90;13.40;;;;;;;12.01;50.41;95289.00;4992884;28;20065;-79
2022/03/30 03:12:31;;;;;;;18.90;12.88;;;;;;;12.00;50.25;95292.59;4992624;28;20057;-80
2022/03/30 03:14:58;;;;;;;19.55;13.27;;;;;;;11.99;50.29;95285.81;4992957;28;20054;-80
2022/03/30 03:17:26;;;;;;;17.65;12.90;;;;;;;11.98;50.19;95292.03;4993859;28;20424;-80
2022/03/30 03:19:55;;;;;;;18.10;12.10;;;;;;;11.93;50.31;95297.94;4996707;28;20046;-80
2022/03/30 03:22:22;;;;;;;18.83;13.00;;;;;;;11.84;50.46;95297.41;4996246;28;20429;-80
2022/03/30 03:24:50;;;;;;;19.40;12.43;;;;;;;11.77;50.79;95290.69;4996337;28;20061;-80
2022/03/30 03:27:17;;;;;;;17.73;12.18;;;;;;;11.73;51.05;95288.50;4996305;28;20050;-80
2022/03/30 03:29:45;;;;;;;20.20;12.75;;;;;;;11.69;50.99;95292.56;4996678;28;20089;-80
2022/03/30 03:32:12;;;;;;;24.38;13.73;;;;;;;11.65;51.16;95290.63;4996922;28;20042;-80
2022/03/30 03:34:40;;;;;;;18.65;12.25;;;;;;;11.61;51.12;95290.28;4996397;28;20054;-80
2022/03/30 03:37:09;;;;;;;14.85;11.20;;;;;;;11.63;51.91;95287.44;4995508;28;20591;-79
2022/03/30 03:39:36;;;;;;;16.08;12.07;;;;;;;11.71;51.95;95289.75;4996385;28;20420;-80
2022/03/30 03:42:05;;;;;;;21.73;14.57;;;;;;;11.78;51.34;95284.44;4996068;28;20504;-79
2022/03/30 03:44:32;;;;;;;21.23;14.30;;;;;;;11.83;51.13;95279.34;4996123;28;20440;-79
2022/03/30 03:47:00;;;;;;;22.02;14.63;;;;;;;11.82;51.07;95281.16;4995459;28;20416;-79
2022/03/30 03:49:27;;;;;;;18.55;13.60;;;;;;;11.77;51.29;95277.63;4995970;28;20057;-80
2022/03/30 03:51:55;;;;;;;21.75;14.77;;;;;;;11.75;51.25;95275.22;4996113;28;20050;-80
2022/03/30 03:54:24;;;;;;;19.27;14.23;;;;;;;11.75;51.83;95272.63;4995785;28;20509;-80
2022/03/30 03:56:51;;;;;;;22.30;13.60;;;;;;;11.81;51.32;95270.94;4995909;28;20061;-80
2022/03/30 03:59:19;;;;;;;19.10;13.80;;;;;;;11.85;51.16;95280.72;4995919;28;20080;-79
2022/03/30 04:01:47;;;;;;;20.33;12.70;;;;;;;11.87;51.04;95273.47;4995709;28;20046;-80
2022/03/30 04:04:14;;;;;;;27.38;11.98;;;;;;;11.82;50.92;95264.69;4995499;28;20043;-80
2022/03/30 04:06:42;;;;;;;17.75;10.52;;;;;;;11.71;51.12;95263.63;4994985;28;20058;-80
2022/03/30 04:09:09;;;;;;;22.23;13.18;;;;;;;11.58;51.42;95263.81;4995666;28;20149;-80
2022/03/30 04:11:38;;;;;;;22.42;12.48;;;;;;;11.47;51.90;95257.50;4995728;28;20054;-80
2022/03/30 04:14:06;;;;;;;22.02;12.50;;;;;;;11.40;52.15;95262.00;4995545;28;20054;-80
2022/03/30 04:16:34;;;;;;;22.08;13.52;;;;;;;11.36;52.22;95266.88;4994825;28;20050;-80
2022/03/30 04:19:01;;;;;;;24.48;13.43;;;;;;;11.33;52.13;95268.09;4995302;28;20046;-81
2022/03/30 04:21:29;;;;;;;21.23;12.75;;;;;;;11.35;52.40;95260.06;4995224;28;20485;-79
2022/03/30 04:23:56;;;;;;;22.25;12.75;;;;;;;11.41;52.27;95251.34;4995495;28;20110;-79
2022/03/30 04:26:24;;;;;;;20.35;13.52;;;;;;;11.43;51.68;95251.13;4994978;28;20048;-79
2022/03/30 04:28:53;;;;;;;25.27;14.05;;;;;;;11.45;52.26;95249.88;4995090;28;20046;-80
2022/03/30 04:31:20;;;;;;;22.73;14.52;;;;;;;11.47;51.71;95245.25;4995050;28;20050;-80
2022/03/30 04:33:48;;;;;;;26.58;14.20;;;;;;;11.50;51.55;95241.38;4994931;28;20046;-80
2022/03/30 04:36:16;;;;;;;24.20;13.75;;;;;;;11.50;51.17;95247.44;4994541;28;20062;-80
2022/03/30 04:38:43;;;;;;;24.27;14.25;;;;;;;11.52;51.70;95240.16;4996191;28;20053;-80
2022/03/30 04:41:11;;;;;;;29.23;15.93;;;;;;;11.55;51.53;95234.50;4997261;28;20133;-80
2022/03/30 04:43:38;;;;;;;31.85;18.50;;;;;;;11.54;51.52;95242.53;5010887;28;20043;-80
2022/03/30 04:46:08;;;;;;;29.48;16.88;;;;;;;11.52;51.75;95240.16;5012599;28;20061;-80
2022/03/30 04:48:36;;;;;;;24.60;16.33;;;;;;;11.55;51.75;95236.31;5001341;28;20060;-80
2022/03/30 04:51:04;;;;;;;26.60;15.65;;;;;;;11.60;51.59;95235.66;4994783;28;20050;-80
2022/03/30 04:53:32;;;;;;;24.25;15.10;;;;;;;11.65;51.41;95243.59;5024849;23;20026;-80
2022/03/30 04:56:00;;;;;;;28.05;14.88;;;;;;;11.65;51.08;95248.81;5019531;28;20061;-81
2022/03/30 04:58:28;;;;;;;24.38;14.23;;;;;;;11.65;51.31;95248.81;5019871;28;20035;-81
2022/03/30 05:00:55;;;;;;;30.25;16.73;;;;;;;11.63;51.11;95245.63;5019789;28;20054;-81
2022/03/30 05:03:25;;;;;;;24.58;15.05;;;;;;;11.60;51.52;95246.09;5019730;28;20098;-81
2022/03/30 05:05:53;;;;;;;31.25;16.08;;;;;;;11.60;51.85;95246.09;5019280;28;20034;-81
2022/03/30 05:08:20;;;;;;;32.03;15.98;;;;;;;11.63;51.61;95235.19;5019710;28;20053;-81
2022/03/30 05:10:48;;;;;;;32.25;18.98;;;;;;;11.65;51.37;95239.16;5019630;28;20053;-81
2022/03/30 05:13:16;;;;;;;30.48;17.27;;;;;;;11.59;51.38;95239.25;5019610;28;20040;-80
2022/03/30 05:15:44;;;;;;;28.13;16.27;;;;;;;11.50;51.64;95242.19;5019482;28;20093;-80
2022/03/30 05:18:12;;;;;;;24.30;14.80;;;;;;;11.47;52.14;95245.25;5019320;28;20106;-81
2022/03/30 05:20:44;;;;;;;32.58;15.85;;;;;;;11.46;52.47;95246.28;5019362;28;20042;-80
2022/03/30 05:23:12;;;;;;;30.42;15.00;;;;;;;11.49;52.39;95245.03;5019398;28;20046;-81
2022/03/30 05:25:39;;;;;;;30.42;16.50;;;;;;;11.53;52.35;95244.38;5019043;28;20094;-81
2022/03/30 05:28:07;;;;;;;34.75;16.73;;;;;;;11.54;52.41;95242.53;5019023;28;20098;-80
2022/03/30 05:30:36;;;;;;;24.73;14.68;;;;;;;11.58;52.29;95243.69;5019237;28;20038;-81
2022/03/30 05:33:04;;;;;;;26.88;15.82;;;;;;;11.61;52.14;95248.50;5019199;28;20042;-81
2022/03/30 05:35:31;;;;;;;25.90;14.45;;;;;;;11.65;52.15;95254.06;5018952;28;20038;-81
2022/03/30 05:38:00;;;;;;;23.60;15.52;;;;;;;11.68;52.54;95249.19;5018795;28;20065;-80
2022/03/30 05:40:28;;;;;;;24.40;15.45;;;;;;;11.71;52.10;95253.19;5018515;28;20042;-81
2022/03/30 05:42:56;;;;;;;26.77;16.02;;;;;;;11.71;52.42;95253.19;5019008;28;20118;-81
2022/03/30 05:45:24;;;;;;;26.40;16.48;;;;;;;11.71;52.63;95253.19;5018893;28;20034;-81
2022/03/30 05:47:52;;;;;;;26.98;15.02;;;;;;;11.71;52.49;95248.75;5018498;28;20034;-81
2022/03/30 05:50:21;;;;;;;24.58;16.23;;;;;;;11.73;53.10;95253.75;5018817;28;20053;-81
2022/03/30 05:52:48;;;;;;;28.13;15.48;;;;;;;11.70;52.90;95251.59;5018490;28;20062;-80
2022/03/30 05:55:18;;;;;;;29.75;16.73;;;;;;;11.66;53.40;95251.22;5018751;28;20098;-81
2022/03/30 05:57:46;;;;;;;31.20;15.95;;;;;;;11.61;53.24;95252.91;5018388;28;20098;-80
2022/03/30 06:00:14;;;;;;;34.80;15.90;;;;;;;11.57;54.11;95256.97;5018767;28;20061;-81
2022/03/30 06:02:42;;;;;;;23.42;15.57;;;;;;;11.52;54.29;95250.63;5018734;28;20038;-80
2022/03/30 06:05:10;;;;;;;30.98;16.25;;;;;;;11.55;54.20;95258.00;5018648;28;20090;-79
2022/03/30 06:07:38;;;;;;;36.92;16.52;;;;;;;11.56;54.56;95245.72;5017983;28;20034;-81
2022/03/30 06:10:06;;;;;;;26.33;15.02;;;;;;;11.58;54.98;95254.16;5018568;28;20094;-80
2022/03/30 06:12:35;;;;;;;31.50;17.25;;;;;;;11.60;55.51;95253.94;5018503;28;20090;-80
2022/03/30 06:15:04;;;;;;;25.92;14.88;;;;;;;11.57;55.64;95262.19;5018468;28;20030;-81
2022/03/30 06:17:34;;;;;;;27.73;17.38;;;;;;;11.49;56.09;95258.09;5017909;28;20045;-81
2022/03/30 06:20:03;;;;;;;27.10;16.05;;;;;;;11.44;56.55;95268.41;5018427;28;20028;-80
2022/03/30 06:22:31;;;;;;;25.90;15.65;;;;;;;11.44;56.72;95271.78;5018355;28;20038;-81
2022/03/30 06:25:00;;;;;;;24.35;15.38;;;;;;;11.49;56.68;95266.72;5018205;28;20043;-80
2022/03/30 06:27:28;;;;;;;29.38;16.63;;;;;;;11.52;55.64;95265.47;5017780;28;20030;-81
2022/03/30 06:29:57;;;;;;;25.35;15.52;;;;;;;11.51;55.88;95266.50;5018491;28;20034;-81
2022/03/30 06:32:25;;;;;;;22.80;16.27;;;;;;;11.54;56.21;95261.63;5018264;28;20049;-80
2022/03/30 06:34:52;;;;;;;27.98;17.90;;;;;;;11.55;56.08;95259.81;5018170;28;20109;-81
2022/03/30 06:37:20;;;;;;;31.73;17.15;;;;;;;11.54;56.05;95269.47;5017849;28;20094;-80
2022/03/30 06:39:48;;;;;;;29.00;17.05;;;;;;;11.53;56.70;95273.09;5018352;28;20045;-81
2022/03/30 06:42:17;;;;;;;29.52;18.90;;;;;;;11.51;57.22;95274.34;5018076;28;20047;-81
2022/03/30 06:44:45;;;;;;;28.48;18.13;;;;;;;11.49;57.82;95268.53;5018131;28;20041;-81
2022/03/30 06:47:14;;;;;;;28.58;16.92;;;;;;;11.46;58.27;95274.19;5017614;28;20152;-80
2022/03/30 06:49:42;;;;;;;28.20;17.08;;;;;;;11.43;58.21;95270.19;5018225;28;20097;-80
2022/03/30 06:52:11;;;;;;;32.08;16.20;;;;;;;11.48;58.28;95272.97;5021211;28;20068;-80
2022/03/30 06:54:39;;;;;;;28.40;17.42;;;;;;;11.54;58.29;95271.25;5022036;28;20058;-81
2022/03/30 06:57:07;;;;;;;27.48;16.23;;;;;;;11.59;58.50;95266.19;5021657;28;20106;-80
2022/03/30 06:59:35;;;;;;;23.58;15.82;;;;;;;11.61;58.40;95258.13;5022208;28;20030;-81
2022/03/30 07:02:03;;;;;;;26.15;15.38;;;;;;;11.64;58.48;95268.16;5022157;28;20026;-81
2022/03/30 07:04:34;;;;;;;27.42;14.85;;;;;;;11.66;58.80;95255.66;5021767;28;20038;-81
2022/03/30 07:12:34;;;;;;;24.70;14.85;;;;;;;11.69;59.03;95248.16;5021785;28;20040;-81
2022/03/30 07:15:01;;;;;;;28.67;16.17;;;;;;;11.69;59.14;95250.00;5021863;28;20038;-81
2022/03/30 07:17:30;;;;;;;30.73;15.07;;;;;;;11.70;59.19;95256.81;5021245;28;20037;-81
2022/03/30 07:20:00;;;;;;;22.25;14.40;;;;;;;11.71;59.62;95247.94;5021666;28;20042;-80
2022/03/30 07:22:27;;;;;;;31.15;14.55;;;;;;;11.69;59.54;95242.16;5021670;28;20065;-81
2022/03/30 07:24:55;;;;;;;25.92;13.82;;;;;;;11.67;59.65;95238.97;5021607;28;20074;-81
2022/03/30 07:27:23;;;;;;;26.42;13.52;;;;;;;11.70;59.76;95235.94;5020990;28;20042;-80
2022/03/30 07:29:51;;;;;;;33.10;15.73;;;;;;;11.68;59.83;95230.13;5021549;28;20065;-81
2022/03/30 07:32:19;;;;;;;26.17;14.05;;;;;;;11.68;59.81;95232.72;5021464;28;20150;-81
2022/03/30 07:34:49;;;;;;;34.58;13.85;;;;;;;11.65;60.14;95228.72;5021390;28;20052;-81
2022/03/30 07:37:18;;;;;;;27.08;12.98;;;;;;;11.63;60.68;95232.59;5020865;28;20050;-80
2022/03/30 07:39:46;;;;;;;23.40;13.10;;;;;;;11.62;60.82;95226.56;5021381;28;20054;-81
2022/03/30 07:42:14;;;;;;;20.70;12.75;;;;;;;11.65;60.93;95222.72;5021192;28;20035;-80
2022/03/30 07:44:41;;;;;;;24.42;12.85;;;;;;;11.71;60.94;95224.44;5021214;28;20040;-81
2022/03/30 07:47:09;;;;;;;32.83;12.73;;;;;;;11.75;60.73;95222.97;5020851;28;20039;-81
2022/03/30 07:49:37;;;;;;;23.63;12.10;;;;;;;11.80;60.54;95217.88;5021148;28;20043;-81
2022/03/30 07:52:05;;;;;;;27.05;13.60;;;;;;;11.85;60.73;95211.97;5020966;28;20053;-80
2022/03/30 07:54:34;;;;;;;22.35;11.20;;;;;;;11.89;60.79;95221.00;5020994;28;20093;-80
2022/03/30 07:57:03;;;;;;;28.35;12.43;;;;;;;11.88;60.36;95209.75;5020705;28;20057;-80
2022/03/30 07:59:31;;;;;;;27.10;11.98;;;;;;;11.90;60.38;95204.31;5020854;28;20030;-81
2022/03/30 08:01:58;;;;;;;20.80;11.50;;;;;;;11.89;60.68;95208.72;5020745;28;20039;-81
2022/03/30 08:04:26;;;;;;;25.30;12.00;;;;;;;11.88;60.56;95201.91;5020293;28;20034;-81
2022/03/30 08:06:54;;;;;;;25.70;12.32;;;;;;;11.89;60.76;95208.72;5020415;28;20031;-80
2022/03/30 08:09:22;;;;;;;28.42;13.13;;;;;;;11.89;60.67;95203.50;5020745;28;20098;-81
2022/03/30 08:11:52;;;;;;;28.25;11.88;;;;;;;11.91;60.75;95211.91;5020617;28;20102;-80
2022/03/30 08:14:26;;;;;;;24.02;12.70;;;;;;;11.91;60.29;95211.91;5020704;28;20049;-80
2022/03/30 08:16:53;;;;;;;26.60;11.25;;;;;;;11.90;60.70;95210.34;5020132;28;20141;-81
2022/03/30 08:19:21;;;;;;;26.65;10.93;;;;;;;11.91;60.69;95208.50;5020749;28;20065;-81
2022/03/30 08:24:34;;;;;;;29.25;12.65;;;;;;;11.93;60.65;95207.25;5020427;28;20034;-80
2022/03/30 08:27:04;;;;;;;25.20;12.68;;;;;;;11.92;60.77;95207.50;5019840;28;20042;-80
2022/03/30 08:29:32;;;;;;;26.65;12.07;;;;;;;11.88;60.84;95199.31;5020376;28;20103;-80
2022/03/30 08:31:59;;;;;;;37.40;12.55;;;;;;;11.84;60.91;95195.50;5020325;28;20038;-81
2022/03/30 08:34:27;;;;;;;30.77;12.75;;;;;;;11.79;61.11;95198.00;5020232;28;20094;-81
2022/03/30 08:36:55;;;;;;;40.33;14.95;;;;;;;11.69;61.25;95197.75;5019909;28;20073;-81
2022/03/30 08:39:23;;;;;;;31.70;13.68;;;;;;;11.62;61.91;95202.28;5020216;28;20049;-81
2022/03/30 08:41:51;;;;;;;38.55;14.55;;;;;;;11.62;62.23;95202.28;5020212;28;20044;-81
2022/03/30 08:44:21;;;;;;;39.17;16.17;;;;;;;11.63;62.33;95201.25;5020205;28;20097;-80
2022/03/30 08:46:49;;;;;;;28.02;14.77;;;;;;;11.60;62.29;95197.25;5019578;28;20042;-81
2022/03/30 08:49:17;;;;;;;59.97;16.58;;;;;;;11.60;62.33;95206.91;5020027;28;20034;-82
2022/03/30 08:51:47;;;;;;;53.63;17.33;;;;;;;11.55;62.85;95208.38;5020078;28;20038;-80
2022/03/30 08:54:16;;;;;;;28.83;14.65;;;;;;;11.59;63.00;95207.91;5019818;28;20034;-81
2022/03/30 08:56:45;;;;;;;25.63;12.73;;;;;;;11.64;63.13;95211.47;5019500;28;20098;-81
2022/03/30 08:59:16;;;;;;;25.17;13.88;;;;;;;11.68;62.81;95204.00;5019817;28;20034;-80
2022/03/30 09:01:45;;;;;;;23.27;12.43;;;;;;;11.69;63.32;95202.97;5019791;28;20088;-81
2022/03/30 09:04:15;;;;;;;25.98;13.60;;;;;;;11.74;63.09;95206.50;5019682;28;20077;-80
2022/03/30 09:06:46;;;;;;;26.58;13.00;;;;;;;11.79;62.91;95208.47;5019186;28;20051;-81
2022/03/30 09:09:15;;;;;;;26.67;13.38;;;;;;;11.75;62.72;95202.09;5019627;28;20069;-80
2022/03/30 09:11:45;;;;;;;20.10;11.65;;;;;;;11.73;63.39;95202.28;5019557;28;20038;-81
2022/03/30 09:14:13;;;;;;;23.60;12.43;;;;;;;11.77;63.13;95197.44;5018636;28;20066;-81
2022/03/30 09:16:43;;;;;;;28.33;13.23;;;;;;;11.79;62.84;95198.00;5019004;28;20030;-81
2022/03/30 09:19:15;;;;;;;29.10;12.40;;;;;;;11.82;63.00;95202.78;5019573;28;20077;-81
2022/03/30 09:21:44;;;;;;;25.98;12.13;;;;;;;11.84;62.96;95200.75;5019442;28;20035;-80
2022/03/30 09:24:14;;;;;;;22.95;12.38;;;;;;;11.80;62.92;95199.59;5019228;28;20030;-80
2022/03/30 09:26:43;;;;;;;25.17;12.45;;;;;;;11.81;63.01;95195.19;5018749;28;20058;-80
2022/03/30 09:29:11;;;;;;;24.58;11.90;;;;;;;11.87;62.91;95191.66;5019386;28;20113;-81
2022/03/30 09:31:41;;;;;;;25.83;11.65;;;;;;;11.90;62.70;95189.44;5019195;28;20042;-81
2022/03/30 09:34:12;;;;;;;26.58;12.73;;;;;;;11.89;62.58;95189.63;5019107;28;20046;-81
2022/03/30 09:36:41;;;;;;;22.60;12.45;;;;;;;11.89;62.93;95198.28;5018606;28;20042;-81
2022/03/30 09:39:27;;;;;;;24.02;12.35;;;;;;;11.91;63.08;95201.47;5019216;28;20073;-80
2022/03/30 09:41:56;;;;;;;21.85;10.75;;;;;;;11.93;62.69;95188.19;5018979;28;20038;-81
2022/03/30 09:44:24;;;;;;;26.65;11.07;;;;;;;11.93;62.52;95183.75;5019025;28;20030;-80
2022/03/30 09:46:53;;;;;;;27.98;11.18;;;;;;;11.92;62.49;95186.59;5018513;28;20085;-80
2022/03/30 09:49:41;;;;;;;24.90;12.25;;;;;;;11.89;63.00;95187.81;5018901;28;20058;-81
2022/03/30 09:52:17;;;;;;;25.20;12.65;;;;;;;11.82;63.14;95181.09;5018883;28;20105;-80
2022/03/30 09:54:49;;;;;;;28.17;12.02;;;;;;;11.79;63.44;95174.50;5018609;28;20041;-80
2022/03/30 09:57:22;;;;;;;30.85;12.45;;;;;;;11.82;64.13;95165.41;5018497;28;20049;-81
2022/03/30 09:59:57;;;;;;;24.02;11.18;;;;;;;11.87;64.34;95168.94;5018800;28;20069;-80
2022/03/30 10:02:25;;;;;;;28.05;12.57;;;;;;;11.93;63.42;95168.06;5018638;28;20046;-80
2022/03/30 10:04:55;;;;;;;24.20;11.68;;;;;;;11.95;63.60;95166.03;5018668;28;20038;-81
2022/03/30 10:07:23;;;;;;;23.30;12.05;;;;;;;11.95;63.37;95166.03;5018228;28;20038;-81
2022/03/30 10:09:51;;;;;;;24.90;11.02;;;;;;;11.98;63.32;95164.78;5018570;28;20038;-80
2022/03/30 10:12:19;;;;;;;27.80;11.07;;;;;;;12.06;63.25;95154.00;5018405;28;20030;-80
2022/03/30 10:14:48;;;;;;;22.48;11.20;;;;;;;12.12;63.11;95152.31;5018474;28;20101;-80
2022/03/30 10:17:16;;;;;;;22.33;11.75;;;;;;;12.17;62.99;95157.63;5018168;28;20060;-80
2022/03/30 10:19:46;;;;;;;20.50;11.45;;;;;;;12.20;62.76;95148.53;5018424;28;20058;-80
2022/03/30 10:22:30;;;;;;;25.48;11.90;;;;;;;12.19;63.42;95145.13;5018298;28;20062;-80
2022/03/30 10:25:06;;;;;;;26.75;12.07;;;;;;;12.19;63.51;95144.34;5018458;28;20061;-80
2022/03/30 10:27:44;;;;;;;24.00;12.32;;;;;;;12.19;63.76;95147.75;5017575;28;20042;-80
2022/03/30 10:30:12;;;;;;;27.13;12.85;;;;;;;12.19;62.92;95133.91;5018139;28;20034;-81
2022/03/30 10:32:41;;;;;;;29.48;12.13;;;;;;;12.16;63.49;95137.75;5018237;28;20042;-81
2022/03/30 10:35:11;;;;;;;28.88;12.57;;;;;;;12.19;63.19;95139.91;5018376;28;20049;-80
2022/03/30 10:37:43;;;;;;;27.38;12.48;;;;;;;12.24;63.24;95141.84;5017702;28;20031;-81
2022/03/30 10:40:16;;;;;;;24.60;9.27;;;;;;;12.29;63.35;95144.59;5018381;28;20062;-81
2022/03/30 10:43:06;;;;;;;25.02;9.73;;;;;;;12.31;62.85;95132.88;5018233;28;20034;-81
2022/03/30 10:45:56;;;;;;;22.08;8.60;;;;;;;12.34;62.73;95136.84;5010664;28;20034;-81
2022/03/30 10:48:37;;;;;;;22.23;8.27;;;;;;;12.33;62.30;95130.81;5018101;28;20058;-80
2022/03/30 10:51:17;;;;;;;17.17;8.52;;;;;;;12.34;62.64;95129.78;5018074;28;20059;-80
2022/03/30 10:53:49;;;;;;;17.15;7.75;;;;;;;12.35;62.34;95128.78;5025699;22;20042;-79
2022/03/30 10:56:33;;;;;;;19.25;8.88;;;;;;;12.29;62.44;95132.31;4992441;28;20103;-79
2022/03/30 10:59:17;;;;;;;16.02;8.20;;;;;;;12.26;62.67;95131.94;4993137;28;20133;-79
2022/03/30 11:01:46;;;;;;;22.63;7.65;;;;;;;12.24;62.34;95121.72;4993095;28;20050;-79
2022/03/30 11:04:25;;;;;;;16.27;8.18;;;;;;;12.22;62.63;95118.53;4992671;28;20142;-79
2022/03/30 11:07:36;;;;;;;21.63;8.45;;;;;;;12.24;62.87;95126.16;4992935;28;20412;-79
2022/03/30 11:10:19;;;;;;;27.13;8.98;;;;;;;12.21;63.38;95111.72;4992953;28;20061;-79
2022/03/30 11:13:00;;;;;;;22.65;8.02;;;;;;;12.24;62.80;95116.47;4992767;28;20508;-79
2022/03/30 11:15:29;;;;;;;23.52;8.15;;;;;;;12.22;62.29;95112.50;4993120;28;20047;-79
2022/03/30 11:18:19;;;;;;;23.08;8.95;;;;;;;12.26;62.94;95114.44;4992575;28;20050;-79
2022/03/30 11:21:16;;;;;;;15.20;8.40;;;;;;;12.26;62.94;95109.22;4993147;28;20523;-79
2022/03/30 11:24:04;;;;;;;20.00;7.78;;;;;;;12.25;62.93;95105.03;4993192;28;20149;-79
2022/03/30 11:27:17;;;;;;;17.27;7.43;;;;;;;12.26;62.68;95106.59;4992317;28;20050;-79
2022/03/30 11:29:52;;;;;;;26.88;7.75;;;;;;;12.26;62.42;95093.53;4992946;28;20162;-79
2022/03/30 11:32:41;;;;;;;27.33;8.60;;;;;;;12.24;63.05;95103.41;4992824;28;20507;-78
2022/03/30 11:35:11;;;;;;;21.88;8.75;;;;;;;12.24;62.68;95100.78;4992656;28;20050;-79
2022/03/30 11:37:42;;;;;;;21.50;8.93;;;;;;;12.29;62.79;95097.53;4992601;28;20050;-79
2022/03/30 11:40:12;;;;;;;21.92;8.50;;;;;;;12.31;62.64;95098.88;4996542;28;20501;-79
2022/03/30 11:42:50;;;;;;;18.13;6.82;;;;;;;12.31;62.55;95096.25;4996253;28;20085;-79